createdAt,value
2023-04-16T00:01:06.999Z,6.65
2023-04-16T00:04:10.444Z,7.28
2023-04-16T00:07:13.292Z,6.40
2023-04-16T00:10:16.460Z,6.68
2023-04-16T00:13:19.226Z,7.43
2023-04-16T00:16:22.100Z,6.20
2023-04-16T00:19:24.729Z,7.30
2023-04-16T00:22:27.778Z,6.80
2023-04-16T00:25:30.415Z,6.25
2023-04-16T00:28:33.355Z,5.95
2023-04-16T00:31:36.817Z,6.93
2023-04-16T00:34:39.597Z,6.30
2023-04-16T00:37:42.312Z,5.85
2023-04-16T00:40:45.242Z,6.20
2023-04-16T00:43:47.955Z,6.47
2023-04-16T00:46:51.150Z,7.12
2023-04-16T00:49:54.333Z,7.47
2023-04-16T00:52:57.399Z,6.53
2023-04-16T00:56:02.400Z,7.10
2023-04-16T00:59:06.386Z,6.90
2023-04-16T01:02:09.091Z,5.57
2023-04-16T01:05:12.027Z,6.03
2023-04-16T01:08:19.258Z,5.80
2023-04-16T01:11:24.327Z,7.28
2023-04-16T01:14:26.951Z,6.78
2023-04-16T01:17:29.919Z,6.90
2023-04-16T01:20:35.952Z,6.22
2023-04-16T01:23:39.151Z,6.15
2023-04-16T01:26:41.935Z,6.10
2023-04-16T01:29:44.764Z,6.45
2023-04-16T01:32:48.008Z,6.93
2023-04-16T01:35:51.178Z,6.18
2023-04-16T01:38:53.707Z,7.18
2023-04-16T01:41:57.186Z,8.10
2023-04-16T01:44:59.661Z,7.05
2023-04-16T01:48:03.905Z,6.30
2023-04-16T01:51:06.911Z,6.32
2023-04-16T01:54:10.032Z,6.80
2023-04-16T01:57:12.727Z,6.03
2023-04-16T02:00:16.002Z,6.80
2023-04-16T02:03:21.520Z,7.40
2023-04-16T02:06:24.972Z,5.80
2023-04-16T02:09:27.557Z,6.35
2023-04-16T02:12:31.129Z,6.53
2023-04-16T02:15:33.769Z,5.85
2023-04-16T02:18:36.852Z,6.07
2023-04-16T02:21:41.805Z,6.20
2023-04-16T02:24:44.306Z,6.07
2023-04-16T02:27:47.253Z,6.10
2023-04-16T02:30:51.273Z,6.62
2023-04-16T02:33:54.640Z,5.60
2023-04-16T02:36:58.363Z,5.95
2023-04-16T02:40:01.373Z,6.30
2023-04-16T02:43:04.759Z,5.95
2023-04-16T02:46:08.685Z,6.68
2023-04-16T02:49:11.690Z,7.18
2023-04-16T02:52:15.648Z,5.72
2023-04-16T02:55:18.386Z,6.15
2023-04-16T02:58:23.992Z,6.15
2023-04-16T03:01:28.533Z,5.68
2023-04-16T03:04:33.130Z,6.50
2023-04-16T03:07:35.932Z,5.40
2023-04-16T03:10:39.025Z,6.18
2023-04-16T03:13:41.741Z,5.18
2023-04-16T03:16:45.704Z,6.05
2023-04-16T03:19:48.403Z,5.75
2023-04-16T03:22:55.087Z,5.95
2023-04-16T03:25:57.800Z,4.70
2023-04-16T03:29:02.149Z,5.03
2023-04-16T03:32:06.330Z,5.28
2023-04-16T03:35:09.840Z,4.70
2023-04-16T03:38:12.814Z,6.00
2023-04-16T03:41:15.889Z,4.85
2023-04-16T03:44:18.665Z,5.12
2023-04-16T03:47:21.777Z,4.50
2023-04-16T03:50:24.804Z,4.12
2023-04-16T03:53:27.624Z,4.55
2023-04-16T03:56:30.545Z,4.60
2023-04-16T03:59:33.610Z,5.20
2023-04-16T04:02:36.434Z,5.07
2023-04-16T04:05:41.407Z,5.35
2023-04-16T04:08:44.362Z,5.62
2023-04-16T04:11:48.769Z,4.70
2023-04-16T04:14:51.583Z,5.57
2023-04-16T04:17:54.570Z,5.12
2023-04-16T04:20:57.813Z,6.10
2023-04-16T04:24:01.049Z,5.72
2023-04-16T04:27:04.767Z,5.32
2023-04-16T04:30:08.449Z,4.50
2023-04-16T04:33:11.357Z,4.60
2023-04-16T04:36:14.336Z,4.35
2023-04-16T04:39:17.885Z,5.12
2023-04-16T04:42:21.551Z,5.10
2023-04-16T04:45:25.654Z,4.75
2023-04-16T04:48:29.035Z,5.18
2023-04-16T04:51:32.070Z,4.47
2023-04-16T04:54:34.971Z,5.35
2023-04-16T04:57:37.612Z,5.37
2023-04-16T05:00:41.068Z,4.55
2023-04-16T05:03:44.307Z,5.80
2023-04-16T05:06:47.317Z,5.30
2023-04-16T05:09:49.926Z,5.05
2023-04-16T05:12:52.867Z,5.15
2023-04-16T05:15:55.488Z,5.37
2023-04-16T05:18:58.463Z,4.70
2023-04-16T05:22:02.441Z,5.72
2023-04-16T05:25:05.759Z,4.97
2023-04-16T05:28:08.291Z,5.20
2023-04-16T05:31:11.161Z,4.72
2023-04-16T05:34:13.782Z,4.60
2023-04-16T05:37:16.682Z,4.60
2023-04-16T05:40:19.433Z,5.15
2023-04-16T05:43:22.249Z,5.37
2023-04-16T05:46:25.136Z,5.20
2023-04-16T05:49:28.092Z,5.15
2023-04-16T05:52:30.796Z,5.25
2023-04-16T05:55:34.051Z,6.05
2023-04-16T05:58:37.112Z,5.60
2023-04-16T06:01:40.400Z,4.90
2023-04-16T06:04:44.006Z,6.45
2023-04-16T06:07:46.641Z,5.00
2023-04-16T06:10:49.699Z,4.90
2023-04-16T06:13:52.808Z,5.62
2023-04-16T06:16:56.371Z,4.93
2023-04-16T06:19:59.373Z,5.07
2023-04-16T06:23:02.299Z,4.70
2023-04-16T06:26:05.645Z,5.28
2023-04-16T06:29:08.805Z,4.97
2023-04-16T06:32:12.085Z,5.68
2023-04-16T06:35:14.934Z,4.97
2023-04-16T06:38:17.570Z,5.35
2023-04-16T06:41:22.761Z,5.45
2023-04-16T06:44:25.385Z,5.05
2023-04-16T06:47:28.392Z,5.62
2023-04-16T06:50:31.091Z,5.22
2023-04-16T06:53:34.201Z,5.43
2023-04-16T06:56:37.515Z,4.95
2023-04-16T06:59:40.689Z,5.15
2023-04-16T07:02:43.888Z,5.15
2023-04-16T07:05:46.814Z,4.70
2023-04-16T07:08:49.464Z,4.90
2023-04-16T07:11:52.623Z,5.07
2023-04-16T07:14:55.773Z,4.85
2023-04-16T07:17:58.714Z,5.57
2023-04-16T07:21:01.421Z,4.95
2023-04-16T07:24:04.824Z,5.22
2023-04-16T07:27:07.410Z,5.25
2023-04-16T07:30:10.810Z,4.68
2023-04-16T07:33:13.606Z,4.20
2023-04-16T07:36:16.457Z,4.57
2023-04-16T07:39:18.997Z,4.10
2023-04-16T07:42:22.131Z,4.10
2023-04-16T07:45:25.089Z,4.32
2023-04-16T07:48:28.677Z,3.90
2023-04-16T07:51:31.513Z,3.92
2023-04-16T07:54:34.452Z,4.10
2023-04-16T07:57:37.527Z,4.10
2023-04-16T08:00:40.489Z,3.87
2023-04-16T08:03:43.873Z,3.85
2023-04-16T08:06:46.482Z,3.25
2023-04-16T08:09:52.034Z,3.80
2023-04-16T08:12:54.597Z,3.58
2023-04-16T08:15:57.459Z,3.97
2023-04-16T08:19:01.200Z,3.50
2023-04-16T08:22:04.594Z,3.87
2023-04-16T08:25:07.801Z,3.50
2023-04-16T08:28:10.712Z,3.03
2023-04-16T08:31:13.494Z,3.42
2023-04-16T08:34:16.907Z,2.97
2023-04-16T08:37:19.612Z,2.75
2023-04-16T08:40:23.618Z,2.62
2023-04-16T08:43:26.771Z,2.75
2023-04-16T08:46:31.635Z,3.00
2023-04-16T08:49:36.949Z,2.50
2023-04-16T08:52:46.348Z,3.10
2023-04-16T08:55:52.679Z,2.70
2023-04-16T08:58:56.000Z,2.65
2023-04-16T09:01:59.635Z,2.50
2023-04-16T09:05:07.485Z,2.35
2023-04-16T09:08:10.129Z,2.70
2023-04-16T09:11:18.296Z,2.92
2023-04-16T09:14:22.090Z,2.53
2023-04-16T09:17:24.990Z,2.78
2023-04-16T09:20:27.572Z,2.50
2023-04-16T09:23:31.150Z,2.30
2023-04-16T09:26:34.453Z,2.47
2023-04-16T09:29:39.560Z,2.50
2023-04-16T09:32:42.199Z,2.47
2023-04-16T09:35:47.630Z,2.60
2023-04-16T09:38:54.974Z,2.35
2023-04-16T09:42:00.299Z,2.50
2023-04-16T09:45:05.114Z,2.67
2023-04-16T09:48:09.011Z,2.70
2023-04-16T09:51:11.573Z,2.60
2023-04-16T09:54:15.674Z,2.60
2023-04-16T09:57:22.953Z,2.30
2023-04-16T10:00:26.002Z,2.50
2023-04-16T10:03:33.762Z,2.33
2023-04-16T10:06:36.574Z,2.50
2023-04-16T10:09:40.076Z,2.58
2023-04-16T10:12:43.671Z,2.70
2023-04-16T10:15:46.861Z,2.92
2023-04-16T10:18:49.648Z,2.35
2023-04-16T10:21:55.654Z,2.55
2023-04-16T10:24:59.067Z,2.40
2023-04-16T10:28:03.117Z,2.40
2023-04-16T10:31:08.702Z,2.65
2023-04-16T10:34:12.219Z,2.35
2023-04-16T10:37:18.064Z,2.10
2023-04-16T10:40:26.148Z,2.47
2023-04-16T10:46:34.486Z,2.30
2023-04-16T10:49:37.166Z,2.37
2023-04-16T10:52:40.303Z,2.20
2023-04-16T10:55:56.818Z,2.10
2023-04-16T10:58:59.657Z,1.90
2023-04-16T11:02:13.809Z,2.00
2023-04-16T11:05:16.819Z,1.83
2023-04-16T11:08:19.514Z,1.80
2023-04-16T11:11:23.612Z,1.77
2023-04-16T11:14:26.283Z,1.90
2023-04-16T11:17:52.716Z,1.85
2023-04-16T11:20:56.020Z,1.98
2023-04-16T11:23:59.061Z,1.90
2023-04-16T11:27:01.847Z,1.60
2023-04-16T11:30:08.351Z,1.77
2023-04-16T11:33:12.353Z,1.75
2023-04-16T11:36:15.440Z,1.50
2023-04-16T11:39:24.343Z,2.00
2023-04-16T11:42:28.615Z,1.80
2023-04-16T11:45:31.471Z,1.65
2023-04-16T11:48:53.660Z,1.62
2023-04-16T11:51:57.298Z,1.60
2023-04-16T11:55:00.471Z,1.50
2023-04-16T11:58:13.289Z,1.48
2023-04-16T12:01:21.470Z,1.27
2023-04-16T12:04:26.931Z,1.33
2023-04-16T12:07:29.787Z,1.33
2023-04-16T12:10:35.205Z,1.42
2023-04-16T12:13:40.189Z,1.45
2023-04-16T12:16:43.299Z,1.20
2023-04-16T12:19:52.936Z,1.52
2023-04-16T12:22:58.288Z,1.37
2023-04-16T12:26:10.445Z,1.48
2023-04-16T12:29:22.046Z,1.42
2023-04-16T12:32:24.665Z,1.30
2023-04-16T12:35:32.150Z,1.30
2023-04-16T12:38:34.793Z,1.27
2023-04-16T12:41:39.604Z,1.40
2023-04-16T12:44:42.220Z,1.40
2023-04-16T12:47:45.089Z,1.40
2023-04-16T12:50:48.149Z,1.30
2023-04-16T12:53:51.001Z,1.20
2023-04-16T12:56:53.562Z,1.20
2023-04-16T12:59:57.905Z,1.12
2023-04-16T13:03:00.602Z,1.35
2023-04-16T13:06:04.398Z,1.30
2023-04-16T13:09:07.423Z,1.40
2023-04-16T13:12:10.708Z,1.27
2023-04-16T13:15:13.511Z,1.48
2023-04-16T13:18:16.516Z,1.20
2023-04-16T13:21:19.069Z,1.00
2023-04-16T13:24:23.172Z,1.30
2023-04-16T13:27:25.839Z,1.25
2023-04-16T13:30:29.533Z,1.30
2023-04-16T13:33:32.333Z,1.05
2023-04-16T13:36:35.579Z,1.35
2023-04-16T13:39:38.536Z,1.10
2023-04-16T13:42:41.440Z,1.30
2023-04-16T13:45:44.097Z,1.15
2023-04-16T13:48:47.264Z,1.10
2023-04-16T13:51:49.939Z,0.90
2023-04-16T13:54:52.946Z,1.02
2023-04-16T13:57:56.392Z,1.17
2023-04-16T14:00:59.600Z,1.10
2023-04-16T14:04:06.847Z,1.25
2023-04-16T14:07:09.552Z,1.10
2023-04-16T14:10:12.489Z,1.20
2023-04-16T14:13:15.554Z,1.08
2023-04-16T14:16:18.489Z,1.20
2023-04-16T14:19:21.448Z,1.10
2023-04-16T14:22:24.392Z,1.00
2023-04-16T14:25:27.125Z,1.10
2023-04-16T14:28:30.127Z,1.10
2023-04-16T14:31:33.599Z,1.05
2023-04-16T14:34:37.071Z,0.90
2023-04-16T14:37:39.727Z,0.93
2023-04-16T14:40:42.573Z,1.02
2023-04-16T14:43:45.206Z,1.20
2023-04-16T14:46:48.311Z,1.02
2023-04-16T14:49:51.216Z,0.90
2023-04-16T14:52:54.597Z,0.90
2023-04-16T14:55:59.074Z,0.90
2023-04-16T14:59:02.035Z,0.80
2023-04-16T15:02:04.795Z,1.10
2023-04-16T15:05:10.466Z,0.70
2023-04-16T15:08:13.142Z,0.80
2023-04-16T15:11:16.046Z,0.98
2023-04-16T15:14:19.018Z,1.05
2023-04-16T15:17:21.850Z,0.90
2023-04-16T15:20:24.498Z,1.05
2023-04-16T15:23:27.738Z,0.93
2023-04-16T15:26:31.012Z,1.27
2023-04-16T15:29:34.093Z,0.70
2023-04-16T15:32:36.697Z,0.95
2023-04-16T15:35:41.275Z,0.88
2023-04-16T15:38:43.846Z,0.90
2023-04-16T15:41:59.732Z,0.80
2023-04-16T15:45:03.898Z,0.73
2023-04-16T15:48:07.124Z,0.80
2023-04-16T15:51:11.047Z,0.82
2023-04-16T15:54:13.982Z,1.10
2023-04-16T15:57:16.582Z,1.05
2023-04-16T16:00:21.315Z,1.00
2023-04-16T16:03:24.347Z,1.00
2023-04-16T16:06:27.221Z,1.20
2023-04-16T16:09:30.599Z,1.08
2023-04-16T16:12:33.407Z,0.90
2023-04-16T16:15:36.302Z,1.35
2023-04-16T16:18:39.037Z,1.10
2023-04-16T16:21:42.113Z,1.00
2023-04-16T16:24:44.670Z,1.45
2023-04-16T16:27:47.507Z,1.20
2023-04-16T16:30:51.337Z,1.20
2023-04-16T16:33:54.183Z,1.00
2023-04-16T16:36:56.870Z,1.33
2023-04-16T16:39:59.924Z,1.40
2023-04-16T16:43:02.889Z,1.37
2023-04-16T16:46:07.566Z,1.40
2023-04-16T16:49:10.887Z,1.45
2023-04-16T16:52:14.216Z,1.45
2023-04-16T16:55:18.725Z,1.30
2023-04-16T16:58:21.915Z,1.48
2023-04-16T17:01:27.664Z,1.42
2023-04-16T17:04:30.618Z,1.40
2023-04-16T17:07:33.673Z,1.37
2023-04-16T17:10:36.668Z,1.65
2023-04-16T17:13:39.419Z,1.70
2023-04-16T17:16:42.371Z,1.52
2023-04-16T17:19:45.397Z,1.73
2023-04-16T17:22:48.746Z,1.40
2023-04-16T17:25:51.419Z,1.48
2023-04-16T17:28:54.498Z,1.60
2023-04-16T17:31:57.910Z,1.70
2023-04-16T17:35:01.935Z,1.40
2023-04-16T17:38:04.598Z,1.25
2023-04-16T17:41:07.477Z,1.20
2023-04-16T17:44:11.718Z,1.30
2023-04-16T17:47:14.919Z,1.58
2023-04-16T17:50:17.660Z,1.50
2023-04-16T17:53:20.669Z,1.60
2023-04-16T17:56:23.329Z,1.85
2023-04-16T17:59:27.442Z,1.58
2023-04-16T18:02:30.398Z,1.73
2023-04-16T18:05:33.658Z,1.80
2023-04-16T18:08:37.016Z,2.17
2023-04-16T18:11:40.011Z,2.20
2023-04-16T18:14:44.835Z,2.22
2023-04-16T18:17:47.973Z,2.47
2023-04-16T18:20:52.043Z,2.20
2023-04-16T18:23:54.885Z,2.30
2023-04-16T18:26:57.543Z,2.12
2023-04-16T18:30:00.610Z,2.60
2023-04-16T18:36:11.806Z,2.28
2023-04-16T18:39:14.852Z,2.10
2023-04-16T18:42:17.748Z,2.45
2023-04-16T18:45:21.817Z,2.33
2023-04-16T18:48:25.120Z,2.05
2023-04-16T18:51:27.747Z,1.95
2023-04-16T18:54:30.610Z,2.20
2023-04-16T18:57:33.195Z,2.30
2023-04-16T19:00:37.571Z,2.20
2023-04-16T19:03:40.341Z,1.98
2023-04-16T19:06:43.936Z,2.37
2023-04-16T19:09:46.576Z,2.10
2023-04-16T19:12:49.937Z,2.60
2023-04-16T19:16:01.644Z,2.20
2023-04-16T19:19:04.911Z,2.60
2023-04-16T19:22:07.583Z,2.10
2023-04-16T19:25:10.848Z,2.30
2023-04-16T19:28:13.430Z,2.37
2023-04-16T19:31:16.486Z,2.50
2023-04-16T19:34:19.278Z,2.70
2023-04-16T19:37:22.224Z,2.53
2023-04-16T19:40:24.957Z,2.28
2023-04-16T19:43:30.713Z,2.10
2023-04-16T19:46:33.775Z,2.25
2023-04-16T19:49:36.895Z,2.40
2023-04-16T19:52:39.785Z,2.22
2023-04-16T19:55:42.980Z,2.20
2023-04-16T19:58:45.559Z,2.53
2023-04-16T20:01:48.686Z,2.22
2023-04-16T20:04:53.114Z,2.25
2023-04-16T20:07:56.636Z,2.25
2023-04-16T20:10:59.533Z,2.08
2023-04-16T20:14:02.326Z,2.15
2023-04-16T20:17:09.805Z,2.20
2023-04-16T20:20:15.604Z,2.10
2023-04-16T20:23:18.767Z,1.95
2023-04-16T20:26:23.974Z,2.30
2023-04-16T20:29:27.097Z,1.95
2023-04-16T20:32:30.140Z,2.12
2023-04-16T20:35:37.053Z,1.92
2023-04-16T20:38:42.417Z,1.98
2023-04-16T20:41:56.427Z,2.00
2023-04-16T20:45:01.066Z,2.20
2023-04-16T20:48:07.775Z,2.00
2023-04-16T20:51:10.380Z,1.67
2023-04-16T20:54:13.157Z,2.10
2023-04-16T20:57:15.843Z,1.92
2023-04-16T21:00:18.920Z,1.85
2023-04-16T21:03:21.667Z,1.77
2023-04-16T21:06:24.736Z,1.98
2023-04-16T21:09:27.354Z,1.85
2023-04-16T21:12:30.479Z,2.10
2023-04-16T21:15:34.673Z,2.00
2023-04-16T21:18:37.862Z,2.12
2023-04-16T21:21:41.861Z,1.80
2023-04-16T21:24:44.895Z,2.00
2023-04-16T21:27:47.542Z,2.12
2023-04-16T21:30:53.644Z,2.17
2023-04-16T21:33:56.380Z,2.00
2023-04-16T21:36:59.349Z,2.17
2023-04-16T21:40:02.500Z,1.73
2023-04-16T21:43:05.367Z,2.20
2023-04-16T21:46:07.882Z,1.85
2023-04-16T21:49:10.983Z,1.87
2023-04-16T21:52:19.781Z,1.87
2023-04-16T21:55:22.907Z,1.98
2023-04-16T21:58:25.890Z,2.20
2023-04-16T22:01:29.366Z,1.90
2023-04-16T22:04:39.022Z,2.00
2023-04-16T22:07:41.706Z,1.90
2023-04-16T22:10:44.592Z,1.85
2023-04-16T22:13:47.857Z,1.83
2023-04-16T22:16:52.265Z,1.87
2023-04-16T22:19:55.040Z,1.80
2023-04-16T22:22:58.718Z,2.10
2023-04-16T22:26:02.807Z,1.77
2023-04-16T22:29:06.059Z,1.80
2023-04-16T22:32:08.747Z,1.77
2023-04-16T22:35:12.595Z,1.40
2023-04-16T22:38:16.487Z,1.55
2023-04-16T22:41:19.720Z,1.60
2023-04-16T22:44:22.926Z,2.00
2023-04-16T22:47:25.810Z,1.80
2023-04-16T22:50:31.159Z,2.05
2023-04-16T22:53:35.960Z,2.03
2023-04-16T22:56:38.964Z,1.90
2023-04-16T22:59:41.907Z,1.83
2023-04-16T23:02:45.309Z,1.80
2023-04-16T23:05:49.066Z,1.77
2023-04-16T23:08:51.665Z,1.80
2023-04-16T23:11:54.725Z,1.60
2023-04-16T23:14:58.337Z,2.12
2023-04-16T23:18:01.338Z,1.67
2023-04-16T23:21:04.126Z,1.60
2023-04-16T23:24:07.729Z,2.00
2023-04-16T23:27:10.731Z,2.08
2023-04-16T23:30:13.941Z,1.67
2023-04-16T23:33:17.753Z,2.00
2023-04-16T23:36:20.811Z,2.00
2023-04-16T23:39:24.046Z,2.10
2023-04-16T23:42:26.936Z,1.90
2023-04-16T23:45:29.508Z,2.00
2023-04-16T23:48:32.463Z,2.12
2023-04-16T23:51:35.066Z,1.73
2023-04-16T23:54:38.393Z,1.90
2023-04-16T23:57:41.025Z,1.73
